sensor_id;sensor_type;location;lat;lon;timestamp;temperature;humidity
18191;DHT22;47004;51.366;12.348;2024-01-06T00:00:55;4.60;99.90
18191;DHT22;47004;51.366;12.348;2024-01-06T00:02:56;4.00;99.90
18191;DHT22;47004;51.366;12.348;2024-01-06T00:04:58;4.00;99.90
18191;DHT22;47004;51.366;12.348;2024-01-06T00:07:00;3.90;99.90
18191;DHT22;47004;51.366;12.348;2024-01-06T00:09:02;3.90;99.90
18191;DHT22;47004;51.366;12.348;2024-01-06T00:11:04;3.90;99.90
18191;DHT22;47004;51.366;12.348;2024-01-06T00:13:06;4.10;99.90
18191;DHT22;47004;51.366;12.348;2024-01-06T00:15:10;4.00;99.90
18191;DHT22;47004;51.366;12.348;2024-01-06T00:17:12;3.80;99.90
18191;DHT22;47004;51.366;12.348;2024-01-06T00:19:14;3.80;99.90
18191;DHT22;47004;51.366;12.348;2024-01-06T00:21:18;3.80;99.90
18191;DHT22;47004;51.366;12.348;2024-01-06T00:23:20;3.80;99.90
18191;DHT22;47004;51.366;12.348;2024-01-06T00:25:22;3.80;99.90
18191;DHT22;47004;51.366;12.348;2024-01-06T00:27:24;3.70;99.90
18191;DHT22;47004;51.366;12.348;2024-01-06T00:29:25;3.70;99.90
18191;DHT22;47004;51.366;12.348;2024-01-06T00:31:28;3.70;99.90
18191;DHT22;47004;51.366;12.348;2024-01-06T00:33:30;3.70;99.90
18191;DHT22;47004;51.366;12.348;2024-01-06T00:35:32;3.80;99.90
18191;DHT22;47004;51.366;12.348;2024-01-06T00:37:34;3.70;99.90
18191;DHT22;47004;51.366;12.348;2024-01-06T00:39:35;3.70;99.90
18191;DHT22;47004;51.366;12.348;2024-01-06T00:41:37;3.70;99.90
18191;DHT22;47004;51.366;12.348;2024-01-06T00:43:39;3.60;99.90
18191;DHT22;47004;51.366;12.348;2024-01-06T00:45:41;3.60;99.90
18191;DHT22;47004;51.366;12.348;2024-01-06T00:47:47;3.40;99.90
18191;DHT22;47004;51.366;12.348;2024-01-06T00:49:51;3.60;99.90
18191;DHT22;47004;51.366;12.348;2024-01-06T00:51:53;3.50;99.90
18191;DHT22;47004;51.366;12.348;2024-01-06T00:53:55;3.50;99.90
18191;DHT22;47004;51.366;12.348;2024-01-06T00:55:57;3.50;99.90
18191;DHT22;47004;51.366;12.348;2024-01-06T00:58:18;3.50;99.90
18191;DHT22;47004;51.366;12.348;2024-01-06T01:00:20;3.40;99.90
18191;DHT22;47004;51.366;12.348;2024-01-06T01:02:23;3.40;99.90
18191;DHT22;47004;51.366;12.348;2024-01-06T01:04:26;3.30;99.90
18191;DHT22;47004;51.366;12.348;2024-01-06T01:06:28;3.30;99.90
18191;DHT22;47004;51.366;12.348;2024-01-06T01:08:29;3.30;99.90
18191;DHT22;47004;51.366;12.348;2024-01-06T01:10:32;3.30;99.90
18191;DHT22;47004;51.366;12.348;2024-01-06T01:12:34;3.30;99.90
18191;DHT22;47004;51.366;12.348;2024-01-06T01:14:36;3.30;99.90
18191;DHT22;47004;51.366;12.348;2024-01-06T01:16:38;3.30;99.90
18191;DHT22;47004;51.366;12.348;2024-01-06T01:18:40;3.30;99.90
18191;DHT22;47004;51.366;12.348;2024-01-06T01:20:43;3.30;99.90
18191;DHT22;47004;51.366;12.348;2024-01-06T01:22:45;3.20;99.90
18191;DHT22;47004;51.366;12.348;2024-01-06T01:24:47;3.20;99.90
18191;DHT22;47004;51.366;12.348;2024-01-06T01:26:49;3.10;99.90
18191;DHT22;47004;51.366;12.348;2024-01-06T01:28:51;3.20;99.90
18191;DHT22;47004;51.366;12.348;2024-01-06T01:30:52;3.10;99.90
18191;DHT22;47004;51.366;12.348;2024-01-06T01:32:54;3.10;99.90
18191;DHT22;47004;51.366;12.348;2024-01-06T01:34:56;3.20;99.90
18191;DHT22;47004;51.366;12.348;2024-01-06T01:36:59;3.20;99.90
18191;DHT22;47004;51.366;12.348;2024-01-06T01:39:01;3.10;99.90
18191;DHT22;47004;51.366;12.348;2024-01-06T01:41:03;3.10;99.90
18191;DHT22;47004;51.366;12.348;2024-01-06T01:43:05;3.10;99.90
18191;DHT22;47004;51.366;12.348;2024-01-06T01:45:08;3.10;99.90
18191;DHT22;47004;51.366;12.348;2024-01-06T01:47:10;3.10;99.90
18191;DHT22;47004;51.366;12.348;2024-01-06T01:49:12;3.00;99.90
18191;DHT22;47004;51.366;12.348;2024-01-06T01:51:14;3.00;99.90
18191;DHT22;47004;51.366;12.348;2024-01-06T01:53:18;3.00;99.90
18191;DHT22;47004;51.366;12.348;2024-01-06T01:55:20;3.00;99.90
18191;DHT22;47004;51.366;12.348;2024-01-06T01:57:24;3.00;99.90
18191;DHT22;47004;51.366;12.348;2024-01-06T01:59:27;3.00;99.90
18191;DHT22;47004;51.366;12.348;2024-01-06T02:01:29;3.00;99.90
18191;DHT22;47004;51.366;12.348;2024-01-06T02:03:31;3.00;99.90
18191;DHT22;47004;51.366;12.348;2024-01-06T02:05:33;2.90;99.90
18191;DHT22;47004;51.366;12.348;2024-01-06T02:07:35;2.90;99.90
18191;DHT22;47004;51.366;12.348;2024-01-06T02:09:38;3.00;99.90
18191;DHT22;47004;51.366;12.348;2024-01-06T02:11:40;2.90;99.90
18191;DHT22;47004;51.366;12.348;2024-01-06T02:13:42;2.90;99.90
18191;DHT22;47004;51.366;12.348;2024-01-06T02:15:43;2.90;99.90
18191;DHT22;47004;51.366;12.348;2024-01-06T02:17:48;2.90;99.90
18191;DHT22;47004;51.366;12.348;2024-01-06T02:19:49;2.90;99.90
18191;DHT22;47004;51.366;12.348;2024-01-06T02:21:53;2.80;99.90
18191;DHT22;47004;51.366;12.348;2024-01-06T02:23:55;2.80;99.90
18191;DHT22;47004;51.366;12.348;2024-01-06T02:25:57;2.80;99.90
18191;DHT22;47004;51.366;12.348;2024-01-06T02:27:58;2.70;99.90
18191;DHT22;47004;51.366;12.348;2024-01-06T02:30:00;2.70;99.90
18191;DHT22;47004;51.366;12.348;2024-01-06T02:32:03;2.70;99.90
18191;DHT22;47004;51.366;12.348;2024-01-06T02:34:05;2.70;99.90
18191;DHT22;47004;51.366;12.348;2024-01-06T02:36:16;2.60;99.90
18191;DHT22;47004;51.366;12.348;2024-01-06T02:38:19;2.60;99.90
18191;DHT22;47004;51.366;12.348;2024-01-06T02:40:21;2.60;99.90
18191;DHT22;47004;51.366;12.348;2024-01-06T02:42:23;2.80;99.90
18191;DHT22;47004;51.366;12.348;2024-01-06T02:44:25;2.60;99.90
18191;DHT22;47004;51.366;12.348;2024-01-06T02:46:27;2.80;99.90
18191;DHT22;47004;51.366;12.348;2024-01-06T02:48:29;2.50;99.90
18191;DHT22;47004;51.366;12.348;2024-01-06T02:50:31;2.60;99.90
18191;DHT22;47004;51.366;12.348;2024-01-06T02:52:32;2.40;99.90
18191;DHT22;47004;51.366;12.348;2024-01-06T02:54:36;2.40;99.90
18191;DHT22;47004;51.366;12.348;2024-01-06T02:56:37;2.40;99.90
18191;DHT22;47004;51.366;12.348;2024-01-06T02:58:39;2.40;99.90
18191;DHT22;47004;51.366;12.348;2024-01-06T03:00:44;2.40;99.90
18191;DHT22;47004;51.366;12.348;2024-01-06T03:02:45;2.40;99.90
18191;DHT22;47004;51.366;12.348;2024-01-06T03:04:47;2.30;99.90
18191;DHT22;47004;51.366;12.348;2024-01-06T03:06:52;2.30;99.90
18191;DHT22;47004;51.366;12.348;2024-01-06T03:08:54;2.30;99.90
18191;DHT22;47004;51.366;12.348;2024-01-06T03:10:57;2.50;99.90
18191;DHT22;47004;51.366;12.348;2024-01-06T03:12:59;2.30;99.90
18191;DHT22;47004;51.366;12.348;2024-01-06T03:15:01;2.30;99.90
18191;DHT22;47004;51.366;12.348;2024-01-06T03:17:03;2.30;99.90
18191;DHT22;47004;51.366;12.348;2024-01-06T03:19:06;3.00;99.90
18191;DHT22;47004;51.366;12.348;2024-01-06T03:21:16;2.30;99.90
18191;DHT22;47004;51.366;12.348;2024-01-06T03:23:18;2.30;99.90
18191;DHT22;47004;51.366;12.348;2024-01-06T03:25:20;2.20;99.90
18191;DHT22;47004;51.366;12.348;2024-01-06T03:27:24;2.30;99.90
18191;DHT22;47004;51.366;12.348;2024-01-06T03:29:26;2.20;99.90
18191;DHT22;47004;51.366;12.348;2024-01-06T03:31:28;2.20;99.90
18191;DHT22;47004;51.366;12.348;2024-01-06T03:33:30;2.20;99.90
18191;DHT22;47004;51.366;12.348;2024-01-06T03:35:32;2.20;99.90
18191;DHT22;47004;51.366;12.348;2024-01-06T03:37:34;2.20;99.90
18191;DHT22;47004;51.366;12.348;2024-01-06T03:39:36;2.20;99.90
18191;DHT22;47004;51.366;12.348;2024-01-06T03:41:37;2.20;99.90
18191;DHT22;47004;51.366;12.348;2024-01-06T03:43:40;2.20;99.90
18191;DHT22;47004;51.366;12.348;2024-01-06T03:45:42;2.30;99.90
18191;DHT22;47004;51.366;12.348;2024-01-06T03:47:44;2.40;99.90
18191;DHT22;47004;51.366;12.348;2024-01-06T03:49:46;2.10;99.90
18191;DHT22;47004;51.366;12.348;2024-01-06T03:51:47;2.10;99.90
18191;DHT22;47004;51.366;12.348;2024-01-06T03:53:49;2.10;99.90
18191;DHT22;47004;51.366;12.348;2024-01-06T03:55:51;2.20;99.90
18191;DHT22;47004;51.366;12.348;2024-01-06T03:57:52;2.80;99.90
18191;DHT22;47004;51.366;12.348;2024-01-06T03:59:55;2.10;99.90
18191;DHT22;47004;51.366;12.348;2024-01-06T04:01:57;2.40;99.90
18191;DHT22;47004;51.366;12.348;2024-01-06T04:04:00;2.10;99.90
18191;DHT22;47004;51.366;12.348;2024-01-06T04:06:01;2.80;99.90
18191;DHT22;47004;51.366;12.348;2024-01-06T04:08:04;2.00;99.90
18191;DHT22;47004;51.366;12.348;2024-01-06T04:10:06;2.00;99.90
18191;DHT22;47004;51.366;12.348;2024-01-06T04:12:08;2.00;99.90
18191;DHT22;47004;51.366;12.348;2024-01-06T04:14:10;2.00;99.90
18191;DHT22;47004;51.366;12.348;2024-01-06T04:16:13;2.20;99.90
18191;DHT22;47004;51.366;12.348;2024-01-06T04:18:15;2.00;99.90
18191;DHT22;47004;51.366;12.348;2024-01-06T04:20:16;1.90;99.90
18191;DHT22;47004;51.366;12.348;2024-01-06T04:22:18;1.90;99.90
18191;DHT22;47004;51.366;12.348;2024-01-06T04:24:20;1.90;99.90
18191;DHT22;47004;51.366;12.348;2024-01-06T04:26:21;1.90;99.90
18191;DHT22;47004;51.366;12.348;2024-01-06T04:28:23;1.90;99.90
18191;DHT22;47004;51.366;12.348;2024-01-06T04:30:25;1.80;99.90
18191;DHT22;47004;51.366;12.348;2024-01-06T04:32:28;1.80;99.90
18191;DHT22;47004;51.366;12.348;2024-01-06T04:34:30;1.80;99.90
18191;DHT22;47004;51.366;12.348;2024-01-06T04:36:32;1.80;99.90
18191;DHT22;47004;51.366;12.348;2024-01-06T04:38:33;1.70;99.90
18191;DHT22;47004;51.366;12.348;2024-01-06T04:40:35;1.70;99.90
18191;DHT22;47004;51.366;12.348;2024-01-06T04:42:37;1.70;99.90
18191;DHT22;47004;51.366;12.348;2024-01-06T04:44:39;1.70;99.90
18191;DHT22;47004;51.366;12.348;2024-01-06T04:46:41;1.90;99.90
18191;DHT22;47004;51.366;12.348;2024-01-06T04:48:44;1.70;99.90
18191;DHT22;47004;51.366;12.348;2024-01-06T04:50:46;1.70;99.90
18191;DHT22;47004;51.366;12.348;2024-01-06T04:52:48;1.70;99.90
18191;DHT22;47004;51.366;12.348;2024-01-06T04:54:49;1.80;99.90
18191;DHT22;47004;51.366;12.348;2024-01-06T04:56:51;1.90;99.90
18191;DHT22;47004;51.366;12.348;2024-01-06T04:58:53;1.60;99.90
18191;DHT22;47004;51.366;12.348;2024-01-06T05:00:55;1.50;99.90
18191;DHT22;47004;51.366;12.348;2024-01-06T05:02:57;1.60;99.90
18191;DHT22;47004;51.366;12.348;2024-01-06T05:05:00;1.60;99.90
18191;DHT22;47004;51.366;12.348;2024-01-06T05:07:03;1.70;99.90
18191;DHT22;47004;51.366;12.348;2024-01-06T05:09:05;1.60;99.90
18191;DHT22;47004;51.366;12.348;2024-01-06T05:11:07;1.60;99.90
18191;DHT22;47004;51.366;12.348;2024-01-06T05:13:09;1.60;99.90
18191;DHT22;47004;51.366;12.348;2024-01-06T05:15:11;1.70;99.90
18191;DHT22;47004;51.366;12.348;2024-01-06T05:17:13;2.20;99.90
18191;DHT22;47004;51.366;12.348;2024-01-06T05:19:15;1.70;99.90
18191;DHT22;47004;51.366;12.348;2024-01-06T05:21:23;2.20;99.90
18191;DHT22;47004;51.366;12.348;2024-01-06T05:23:26;1.70;99.90
18191;DHT22;47004;51.366;12.348;2024-01-06T05:25:28;1.70;99.90
18191;DHT22;47004;51.366;12.348;2024-01-06T05:27:30;1.90;99.90
18191;DHT22;47004;51.366;12.348;2024-01-06T05:29:32;1.60;99.90
18191;DHT22;47004;51.366;12.348;2024-01-06T05:31:34;1.70;99.90
18191;DHT22;47004;51.366;12.348;2024-01-06T05:33:35;2.20;99.90
18191;DHT22;47004;51.366;12.348;2024-01-06T05:35:38;1.60;99.90
18191;DHT22;47004;51.366;12.348;2024-01-06T05:37:41;1.60;99.90
18191;DHT22;47004;51.366;12.348;2024-01-06T05:39:43;1.60;99.90
18191;DHT22;47004;51.366;12.348;2024-01-06T05:41:45;2.00;99.90
18191;DHT22;47004;51.366;12.348;2024-01-06T05:43:47;1.50;99.90
18191;DHT22;47004;51.366;12.348;2024-01-06T05:45:49;1.50;99.90
18191;DHT22;47004;51.366;12.348;2024-01-06T05:47:51;1.50;99.90
18191;DHT22;47004;51.366;12.348;2024-01-06T05:49:53;1.50;99.90
18191;DHT22;47004;51.366;12.348;2024-01-06T05:51:54;1.40;99.90
18191;DHT22;47004;51.366;12.348;2024-01-06T05:53:57;2.10;99.90
18191;DHT22;47004;51.366;12.348;2024-01-06T05:55:59;1.30;99.90
18191;DHT22;47004;51.366;12.348;2024-01-06T05:58:01;1.90;99.90
18191;DHT22;47004;51.366;12.348;2024-01-06T06:00:06;1.40;99.90
18191;DHT22;47004;51.366;12.348;2024-01-06T06:02:08;1.40;99.90
18191;DHT22;47004;51.366;12.348;2024-01-06T06:04:10;1.40;99.90
18191;DHT22;47004;51.366;12.348;2024-01-06T06:06:12;1.40;99.90
18191;DHT22;47004;51.366;12.348;2024-01-06T06:08:14;1.30;99.90
18191;DHT22;47004;51.366;12.348;2024-01-06T06:10:18;1.30;99.90
18191;DHT22;47004;51.366;12.348;2024-01-06T06:12:20;1.30;99.90
18191;DHT22;47004;51.366;12.348;2024-01-06T06:14:21;0.80;99.90
18191;DHT22;47004;51.366;12.348;2024-01-06T06:16:23;1.30;99.90
18191;DHT22;47004;51.366;12.348;2024-01-06T06:18:26;1.30;99.90
18191;DHT22;47004;51.366;12.348;2024-01-06T06:20:34;1.30;99.90
18191;DHT22;47004;51.366;12.348;2024-01-06T07:08:44;1.30;99.90
18191;DHT22;47004;51.366;12.348;2024-01-06T07:10:45;1.40;99.90
18191;DHT22;47004;51.366;12.348;2024-01-06T07:12:47;1.80;99.90
18191;DHT22;47004;51.366;12.348;2024-01-06T07:14:49;1.40;99.90
18191;DHT22;47004;51.366;12.348;2024-01-06T07:16:51;1.50;99.90
18191;DHT22;47004;51.366;12.348;2024-01-06T07:18:53;1.60;99.90
18191;DHT22;47004;51.366;12.348;2024-01-06T07:20:55;1.80;99.90
18191;DHT22;47004;51.366;12.348;2024-01-06T07:22:57;1.50;99.90
18191;DHT22;47004;51.366;12.348;2024-01-06T07:25:00;1.60;99.90
18191;DHT22;47004;51.366;12.348;2024-01-06T07:27:01;2.40;99.90
18191;DHT22;47004;51.366;12.348;2024-01-06T07:29:08;1.60;99.90
18191;DHT22;47004;51.366;12.348;2024-01-06T07:31:34;1.70;99.90
18191;DHT22;47004;51.366;12.348;2024-01-06T07:34:05;1.70;99.90
18191;DHT22;47004;51.366;12.348;2024-01-06T07:37:01;1.80;99.90
18191;DHT22;47004;51.366;12.348;2024-01-06T07:39:32;1.80;99.90
18191;DHT22;47004;51.366;12.348;2024-01-06T07:42:24;1.80;99.90
18191;DHT22;47004;51.366;12.348;2024-01-06T07:54:13;2.00;99.90
18191;DHT22;47004;51.366;12.348;2024-01-06T07:56:47;2.00;99.90
18191;DHT22;47004;51.366;12.348;2024-01-06T08:06:09;2.20;99.90
18191;DHT22;47004;51.366;12.348;2024-01-06T08:12:10;2.30;99.90
18191;DHT22;47004;51.366;12.348;2024-01-06T08:14:14;3.00;99.90
18191;DHT22;47004;51.366;12.348;2024-01-06T08:16:18;2.30;99.90
18191;DHT22;47004;51.366;12.348;2024-01-06T08:18:20;2.30;99.90
18191;DHT22;47004;51.366;12.348;2024-01-06T08:20:23;3.20;99.90
18191;DHT22;47004;51.366;12.348;2024-01-06T08:22:26;2.40;99.90
18191;DHT22;47004;51.366;12.348;2024-01-06T08:24:30;2.50;99.90
18191;DHT22;47004;51.366;12.348;2024-01-06T08:26:44;2.50;99.90
18191;DHT22;47004;51.366;12.348;2024-01-06T08:28:50;2.50;99.90
18191;DHT22;47004;51.366;12.348;2024-01-06T08:30:56;2.50;99.90
18191;DHT22;47004;51.366;12.348;2024-01-06T08:32:58;2.50;99.90
18191;DHT22;47004;51.366;12.348;2024-01-06T08:35:02;2.60;99.90
18191;DHT22;47004;51.366;12.348;2024-01-06T08:37:04;2.60;99.90
18191;DHT22;47004;51.366;12.348;2024-01-06T08:39:07;2.80;99.90
18191;DHT22;47004;51.366;12.348;2024-01-06T08:41:09;2.70;99.90
18191;DHT22;47004;51.366;12.348;2024-01-06T08:43:12;3.40;99.90
18191;DHT22;47004;51.366;12.348;2024-01-06T08:45:14;2.70;99.90
18191;DHT22;47004;51.366;12.348;2024-01-06T08:47:16;2.70;99.90
18191;DHT22;47004;51.366;12.348;2024-01-06T08:49:18;2.80;99.90
18191;DHT22;47004;51.366;12.348;2024-01-06T08:51:20;2.80;99.90
18191;DHT22;47004;51.366;12.348;2024-01-06T08:53:22;4.00;99.90
18191;DHT22;47004;51.366;12.348;2024-01-06T08:55:24;2.80;99.90
18191;DHT22;47004;51.366;12.348;2024-01-06T08:57:26;2.80;99.90
18191;DHT22;47004;51.366;12.348;2024-01-06T08:59:28;2.90;99.90
18191;DHT22;47004;51.366;12.348;2024-01-06T09:01:30;3.30;99.90
18191;DHT22;47004;51.366;12.348;2024-01-06T09:03:32;3.00;99.90
18191;DHT22;47004;51.366;12.348;2024-01-06T09:05:34;3.00;99.90
18191;DHT22;47004;51.366;12.348;2024-01-06T09:07:36;3.00;99.90
18191;DHT22;47004;51.366;12.348;2024-01-06T09:09:38;3.00;99.90
18191;DHT22;47004;51.366;12.348;2024-01-06T09:11:42;3.00;99.90
18191;DHT22;47004;51.366;12.348;2024-01-06T09:13:44;2.80;99.90
18191;DHT22;47004;51.366;12.348;2024-01-06T09:15:46;3.10;99.90
18191;DHT22;47004;51.366;12.348;2024-01-06T09:17:48;3.10;99.90
18191;DHT22;47004;51.366;12.348;2024-01-06T09:19:50;3.30;99.90
18191;DHT22;47004;51.366;12.348;2024-01-06T09:21:54;3.10;99.90
18191;DHT22;47004;51.366;12.348;2024-01-06T09:23:56;3.30;99.90
18191;DHT22;47004;51.366;12.348;2024-01-06T09:25:58;3.20;99.90
18191;DHT22;47004;51.366;12.348;2024-01-06T09:28:01;3.20;99.90
18191;DHT22;47004;51.366;12.348;2024-01-06T09:30:04;3.20;99.90
18191;DHT22;47004;51.366;12.348;2024-01-06T09:32:07;3.20;99.90
18191;DHT22;47004;51.366;12.348;2024-01-06T09:34:09;3.20;99.90
18191;DHT22;47004;51.366;12.348;2024-01-06T09:36:12;3.30;99.90
18191;DHT22;47004;51.366;12.348;2024-01-06T09:38:15;3.30;99.90
18191;DHT22;47004;51.366;12.348;2024-01-06T09:40:22;3.30;99.90
18191;DHT22;47004;51.366;12.348;2024-01-06T09:42:24;3.30;99.90
18191;DHT22;47004;51.366;12.348;2024-01-06T09:44:28;3.40;99.90
18191;DHT22;47004;51.366;12.348;2024-01-06T09:46:29;3.40;99.90
18191;DHT22;47004;51.366;12.348;2024-01-06T09:48:33;3.40;99.90
18191;DHT22;47004;51.366;12.348;2024-01-06T09:50:39;3.50;99.90
18191;DHT22;47004;51.366;12.348;2024-01-06T09:52:42;3.50;99.90
18191;DHT22;47004;51.366;12.348;2024-01-06T09:54:48;4.00;99.90
18191;DHT22;47004;51.366;12.348;2024-01-06T09:56:51;3.70;99.90
18191;DHT22;47004;51.366;12.348;2024-01-06T09:58:53;3.90;99.90
18191;DHT22;47004;51.366;12.348;2024-01-06T10:00:57;4.10;99.90
18191;DHT22;47004;51.366;12.348;2024-01-06T10:02:59;4.30;99.90
18191;DHT22;47004;51.366;12.348;2024-01-06T10:05:01;3.80;99.90
18191;DHT22;47004;51.366;12.348;2024-01-06T10:07:04;3.80;99.90
18191;DHT22;47004;51.366;12.348;2024-01-06T10:09:06;3.90;99.90
18191;DHT22;47004;51.366;12.348;2024-01-06T10:11:10;3.90;99.90
18191;DHT22;47004;51.366;12.348;2024-01-06T10:13:16;4.20;99.90
18191;DHT22;47004;51.366;12.348;2024-01-06T10:15:20;3.90;99.90
18191;DHT22;47004;51.366;12.348;2024-01-06T10:17:23;3.90;99.90
18191;DHT22;47004;51.366;12.348;2024-01-06T10:19:24;3.90;99.90
18191;DHT22;47004;51.366;12.348;2024-01-06T10:21:31;4.00;99.90
18191;DHT22;47004;51.366;12.348;2024-01-06T10:23:36;4.00;99.90
18191;DHT22;47004;51.366;12.348;2024-01-06T10:25:38;4.00;99.90
18191;DHT22;47004;51.366;12.348;2024-01-06T10:27:43;4.00;99.90
18191;DHT22;47004;51.366;12.348;2024-01-06T10:29:45;4.20;99.90
18191;DHT22;47004;51.366;12.348;2024-01-06T10:31:50;4.10;99.90
18191;DHT22;47004;51.366;12.348;2024-01-06T10:33:54;4.10;99.90
18191;DHT22;47004;51.366;12.348;2024-01-06T10:35:56;4.50;99.90
18191;DHT22;47004;51.366;12.348;2024-01-06T10:37:59;4.40;99.90
18191;DHT22;47004;51.366;12.348;2024-01-06T10:40:08;4.30;99.90
18191;DHT22;47004;51.366;12.348;2024-01-06T10:42:10;4.30;99.90
18191;DHT22;47004;51.366;12.348;2024-01-06T10:44:16;4.40;99.90
18191;DHT22;47004;51.366;12.348;2024-01-06T10:46:19;4.50;99.90
18191;DHT22;47004;51.366;12.348;2024-01-06T10:48:22;4.50;99.90
18191;DHT22;47004;51.366;12.348;2024-01-06T10:50:27;4.60;99.90
18191;DHT22;47004;51.366;12.348;2024-01-06T10:52:29;4.60;99.90
18191;DHT22;47004;51.366;12.348;2024-01-06T10:54:34;4.70;99.90
18191;DHT22;47004;51.366;12.348;2024-01-06T10:56:38;4.70;99.90
18191;DHT22;47004;51.366;12.348;2024-01-06T10:58:45;4.70;99.90
18191;DHT22;47004;51.366;12.348;2024-01-06T11:00:54;4.70;99.90
18191;DHT22;47004;51.366;12.348;2024-01-06T11:02:56;4.80;99.90
18191;DHT22;47004;51.366;12.348;2024-01-06T11:05:00;4.80;99.90
18191;DHT22;47004;51.366;12.348;2024-01-06T11:07:04;4.90;99.90
18191;DHT22;47004;51.366;12.348;2024-01-06T11:09:11;4.90;99.90
18191;DHT22;47004;51.366;12.348;2024-01-06T11:11:15;5.00;99.90
18191;DHT22;47004;51.366;12.348;2024-01-06T11:13:22;5.00;99.90
18191;DHT22;47004;51.366;12.348;2024-01-06T11:15:47;5.10;99.90
18191;DHT22;47004;51.366;12.348;2024-01-06T11:17:51;5.20;99.90
18191;DHT22;47004;51.366;12.348;2024-01-06T11:20:04;5.30;99.90
18191;DHT22;47004;51.366;12.348;2024-01-06T11:22:23;5.30;99.90
18191;DHT22;47004;51.366;12.348;2024-01-06T11:24:24;5.40;99.90
18191;DHT22;47004;51.366;12.348;2024-01-06T11:26:27;5.50;99.90
18191;DHT22;47004;51.366;12.348;2024-01-06T11:28:28;5.60;99.90
18191;DHT22;47004;51.366;12.348;2024-01-06T11:30:30;5.60;99.90
18191;DHT22;47004;51.366;12.348;2024-01-06T11:32:33;5.70;99.90
18191;DHT22;47004;51.366;12.348;2024-01-06T11:34:37;5.70;99.90
18191;DHT22;47004;51.366;12.348;2024-01-06T11:36:38;5.80;99.90
18191;DHT22;47004;51.366;12.348;2024-01-06T11:38:41;5.90;99.90
18191;DHT22;47004;51.366;12.348;2024-01-06T11:40:46;5.90;99.90
18191;DHT22;47004;51.366;12.348;2024-01-06T11:42:58;6.00;99.90
18191;DHT22;47004;51.366;12.348;2024-01-06T11:45:05;6.00;99.90
18191;DHT22;47004;51.366;12.348;2024-01-06T11:47:08;6.10;99.90
18191;DHT22;47004;51.366;12.348;2024-01-06T11:49:14;6.10;99.90
18191;DHT22;47004;51.366;12.348;2024-01-06T11:51:16;6.20;99.90
18191;DHT22;47004;51.366;12.348;2024-01-06T11:53:19;6.20;99.90
18191;DHT22;47004;51.366;12.348;2024-01-06T11:55:23;6.40;99.90
18191;DHT22;47004;51.366;12.348;2024-01-06T11:57:32;6.20;99.90
18191;DHT22;47004;51.366;12.348;2024-01-06T11:59:34;6.10;99.90
18191;DHT22;47004;51.366;12.348;2024-01-06T12:01:36;6.10;99.90
18191;DHT22;47004;51.366;12.348;2024-01-06T12:03:39;6.00;99.90
18191;DHT22;47004;51.366;12.348;2024-01-06T12:05:41;6.30;99.90
18191;DHT22;47004;51.366;12.348;2024-01-06T12:07:43;6.00;99.90
18191;DHT22;47004;51.366;12.348;2024-01-06T12:09:44;6.00;99.90
18191;DHT22;47004;51.366;12.348;2024-01-06T12:11:47;5.90;99.90
18191;DHT22;47004;51.366;12.348;2024-01-06T12:13:49;6.00;99.90
18191;DHT22;47004;51.366;12.348;2024-01-06T12:15:51;6.00;99.90
18191;DHT22;47004;51.366;12.348;2024-01-06T12:17:53;6.00;99.90
18191;DHT22;47004;51.366;12.348;2024-01-06T12:19:55;6.00;99.90
18191;DHT22;47004;51.366;12.348;2024-01-06T12:21:57;6.10;99.90
18191;DHT22;47004;51.366;12.348;2024-01-06T12:24:13;6.10;99.90
18191;DHT22;47004;51.366;12.348;2024-01-06T12:26:16;6.10;99.90
18191;DHT22;47004;51.366;12.348;2024-01-06T12:28:23;6.00;99.90
18191;DHT22;47004;51.366;12.348;2024-01-06T12:30:25;6.00;99.90
18191;DHT22;47004;51.366;12.348;2024-01-06T12:32:28;6.00;99.90
18191;DHT22;47004;51.366;12.348;2024-01-06T12:34:29;5.90;99.90
18191;DHT22;47004;51.366;12.348;2024-01-06T12:36:31;5.90;99.90
18191;DHT22;47004;51.366;12.348;2024-01-06T12:38:32;5.90;99.90
18191;DHT22;47004;51.366;12.348;2024-01-06T12:40:36;5.80;99.90
18191;DHT22;47004;51.366;12.348;2024-01-06T12:42:37;5.90;99.90
18191;DHT22;47004;51.366;12.348;2024-01-06T12:44:40;5.80;99.90
18191;DHT22;47004;51.366;12.348;2024-01-06T12:46:43;5.80;99.90
18191;DHT22;47004;51.366;12.348;2024-01-06T12:48:45;5.80;99.90
18191;DHT22;47004;51.366;12.348;2024-01-06T12:50:47;5.80;99.90
18191;DHT22;47004;51.366;12.348;2024-01-06T12:52:48;5.80;99.90
18191;DHT22;47004;51.366;12.348;2024-01-06T12:54:50;5.80;99.90
18191;DHT22;47004;51.366;12.348;2024-01-06T12:56:53;5.80;99.90
18191;DHT22;47004;51.366;12.348;2024-01-06T12:58:55;5.80;99.90
18191;DHT22;47004;51.366;12.348;2024-01-06T13:01:00;5.80;99.90
18191;DHT22;47004;51.366;12.348;2024-01-06T13:03:03;5.80;99.90
18191;DHT22;47004;51.366;12.348;2024-01-06T13:05:05;5.70;99.90
18191;DHT22;47004;51.366;12.348;2024-01-06T13:07:12;5.70;99.90
18191;DHT22;47004;51.366;12.348;2024-01-06T13:09:15;5.70;99.90
18191;DHT22;47004;51.366;12.348;2024-01-06T13:11:22;5.70;99.90
18191;DHT22;47004;51.366;12.348;2024-01-06T13:13:30;5.60;99.90
18191;DHT22;47004;51.366;12.348;2024-01-06T13:15:33;5.60;99.90
18191;DHT22;47004;51.366;12.348;2024-01-06T13:17:39;5.50;99.90
18191;DHT22;47004;51.366;12.348;2024-01-06T13:19:43;5.50;99.90
18191;DHT22;47004;51.366;12.348;2024-01-06T13:21:46;5.40;99.90
18191;DHT22;47004;51.366;12.348;2024-01-06T13:23:48;5.40;99.90
18191;DHT22;47004;51.366;12.348;2024-01-06T13:25:49;5.40;99.90
18191;DHT22;47004;51.366;12.348;2024-01-06T13:27:51;5.30;99.90
18191;DHT22;47004;51.366;12.348;2024-01-06T13:29:53;5.40;99.90
18191;DHT22;47004;51.366;12.348;2024-01-06T13:31:56;5.50;99.90
18191;DHT22;47004;51.366;12.348;2024-01-06T13:34:01;5.10;99.90
18191;DHT22;47004;51.366;12.348;2024-01-06T13:36:03;5.20;99.90
18191;DHT22;47004;51.366;12.348;2024-01-06T13:38:07;5.10;99.90
18191;DHT22;47004;51.366;12.348;2024-01-06T13:40:10;5.10;99.90
18191;DHT22;47004;51.366;12.348;2024-01-06T13:42:12;5.00;99.90
18191;DHT22;47004;51.366;12.348;2024-01-06T13:44:13;5.00;99.90
18191;DHT22;47004;51.366;12.348;2024-01-06T13:46:15;5.00;99.90
18191;DHT22;47004;51.366;12.348;2024-01-06T13:48:16;4.90;99.90
18191;DHT22;47004;51.366;12.348;2024-01-06T13:50:20;4.90;99.90
18191;DHT22;47004;51.366;12.348;2024-01-06T13:52:30;4.90;99.90
18191;DHT22;47004;51.366;12.348;2024-01-06T13:54:32;4.90;99.90
18191;DHT22;47004;51.366;12.348;2024-01-06T13:56:34;5.00;99.90
18191;DHT22;47004;51.366;12.348;2024-01-06T13:58:36;4.80;99.90
18191;DHT22;47004;51.366;12.348;2024-01-06T14:00:39;4.90;99.90
18191;DHT22;47004;51.366;12.348;2024-01-06T14:02:43;4.80;99.90
18191;DHT22;47004;51.366;12.348;2024-01-06T14:04:44;4.70;99.90
18191;DHT22;47004;51.366;12.348;2024-01-06T14:06:48;4.70;99.90